sensor_id;sensor_type;location;lat;lon;timestamp;P1;durP1;ratioP1;P2;durP2;ratioP2
48052;SDS011;33824;51.600;5.718;2022-11-13T00:00:34;16.63;;;6.85;;
48052;SDS011;33824;51.600;5.718;2022-11-13T00:03:19;10.98;;;6.00;;
48052;SDS011;33824;51.600;5.718;2022-11-13T00:05:45;12.70;;;5.82;;
48052;SDS011;33824;51.600;5.718;2022-11-13T00:08:10;13.80;;;6.43;;
48052;SDS011;33824;51.600;5.718;2022-11-13T00:10:36;13.68;;;6.50;;
48052;SDS011;33824;51.600;5.718;2022-11-13T00:13:02;14.23;;;6.18;;
48052;SDS011;33824;51.600;5.718;2022-11-13T00:15:27;13.63;;;6.18;;
48052;SDS011;33824;51.600;5.718;2022-11-13T00:17:53;11.55;;;6.00;;
48052;SDS011;33824;51.600;5.718;2022-11-13T00:20:18;9.48;;;5.65;;
48052;SDS011;33824;51.600;5.718;2022-11-13T00:22:44;14.23;;;6.38;;
48052;SDS011;33824;51.600;5.718;2022-11-13T00:25:10;19.30;;;7.43;;
48052;SDS011;33824;51.600;5.718;2022-11-13T00:27:36;11.68;;;6.05;;
48052;SDS011;33824;51.600;5.718;2022-11-13T00:30:02;9.65;;;5.60;;
48052;SDS011;33824;51.600;5.718;2022-11-13T00:32:28;12.80;;;6.30;;
48052;SDS011;33824;51.600;5.718;2022-11-13T00:34:54;11.40;;;6.18;;
48052;SDS011;33824;51.600;5.718;2022-11-13T00:37:19;14.00;;;6.03;;
48052;SDS011;33824;51.600;5.718;2022-11-13T00:39:45;13.80;;;6.07;;
48052;SDS011;33824;51.600;5.718;2022-11-13T00:42:10;12.57;;;5.65;;
48052;SDS011;33824;51.600;5.718;2022-11-13T00:44:36;10.50;;;6.05;;
48052;SDS011;33824;51.600;5.718;2022-11-13T00:47:01;9.13;;;5.30;;
48052;SDS011;33824;51.600;5.718;2022-11-13T00:49:27;10.65;;;5.70;;
48052;SDS011;33824;51.600;5.718;2022-11-13T00:51:52;9.68;;;4.95;;
48052;SDS011;33824;51.600;5.718;2022-11-13T00:54:18;10.68;;;5.45;;
48052;SDS011;33824;51.600;5.718;2022-11-13T00:56:44;14.25;;;5.78;;
48052;SDS011;33824;51.600;5.718;2022-11-13T00:59:09;13.48;;;5.95;;
48052;SDS011;33824;51.600;5.718;2022-11-13T01:01:35;10.40;;;5.18;;
48052;SDS011;33824;51.600;5.718;2022-11-13T01:04:01;10.30;;;4.53;;
48052;SDS011;33824;51.600;5.718;2022-11-13T01:06:26;12.00;;;5.00;;
48052;SDS011;33824;51.600;5.718;2022-11-13T01:08:55;8.27;;;4.82;;
48052;SDS011;33824;51.600;5.718;2022-11-13T01:11:24;10.10;;;5.18;;
48052;SDS011;33824;51.600;5.718;2022-11-13T01:13:51;10.07;;;5.07;;
48052;SDS011;33824;51.600;5.718;2022-11-13T01:16:18;9.45;;;5.05;;
48052;SDS011;33824;51.600;5.718;2022-11-13T01:18:46;9.23;;;5.20;;
48052;SDS011;33824;51.600;5.718;2022-11-13T01:21:12;10.60;;;5.25;;
48052;SDS011;33824;51.600;5.718;2022-11-13T01:23:40;10.70;;;4.47;;
48052;SDS011;33824;51.600;5.718;2022-11-13T01:26:11;13.07;;;5.28;;
48052;SDS011;33824;51.600;5.718;2022-11-13T01:28:40;11.05;;;5.05;;
48052;SDS011;33824;51.600;5.718;2022-11-13T01:31:08;11.98;;;5.90;;
48052;SDS011;33824;51.600;5.718;2022-11-13T01:33:35;9.20;;;5.07;;
48052;SDS011;33824;51.600;5.718;2022-11-13T01:36:03;9.55;;;4.95;;
48052;SDS011;33824;51.600;5.718;2022-11-13T01:38:35;11.40;;;5.05;;
48052;SDS011;33824;51.600;5.718;2022-11-13T01:41:00;7.93;;;4.97;;
48052;SDS011;33824;51.600;5.718;2022-11-13T01:43:27;11.57;;;4.78;;
48052;SDS011;33824;51.600;5.718;2022-11-13T01:48:22;8.73;;;4.45;;
48052;SDS011;33824;51.600;5.718;2022-11-13T01:50:53;9.50;;;4.90;;
48052;SDS011;33824;51.600;5.718;2022-11-13T01:53:19;10.18;;;5.05;;
48052;SDS011;33824;51.600;5.718;2022-11-13T01:55:45;8.23;;;4.40;;
48052;SDS011;33824;51.600;5.718;2022-11-13T01:58:10;8.55;;;4.65;;
48052;SDS011;33824;51.600;5.718;2022-11-13T02:00:37;9.55;;;4.90;;
48052;SDS011;33824;51.600;5.718;2022-11-13T02:03:02;7.70;;;4.32;;
48052;SDS011;33824;51.600;5.718;2022-11-13T02:05:28;9.98;;;5.28;;
48052;SDS011;33824;51.600;5.718;2022-11-13T02:07:54;9.55;;;4.88;;
48052;SDS011;33824;51.600;5.718;2022-11-13T02:10:19;10.02;;;4.75;;
48052;SDS011;33824;51.600;5.718;2022-11-13T02:12:45;8.68;;;4.55;;
48052;SDS011;33824;51.600;5.718;2022-11-13T02:15:14;9.43;;;4.60;;
48052;SDS011;33824;51.600;5.718;2022-11-13T02:17:44;10.13;;;5.15;;
48052;SDS011;33824;51.600;5.718;2022-11-13T02:20:13;6.85;;;3.15;;
48052;SDS011;33824;51.600;5.718;2022-11-13T02:22:43;9.18;;;4.85;;
48052;SDS011;33824;51.600;5.718;2022-11-13T02:25:16;14.13;;;5.13;;
48052;SDS011;33824;51.600;5.718;2022-11-13T02:27:45;10.73;;;4.78;;
48052;SDS011;33824;51.600;5.718;2022-11-13T02:32:44;10.00;;;4.95;;
48052;SDS011;33824;51.600;5.718;2022-11-13T02:35:15;10.38;;;5.18;;
48052;SDS011;33824;51.600;5.718;2022-11-13T02:37:44;13.10;;;4.82;;
48052;SDS011;33824;51.600;5.718;2022-11-13T02:40:10;9.85;;;4.45;;
48052;SDS011;33824;51.600;5.718;2022-11-13T02:42:36;10.80;;;4.85;;
48052;SDS011;33824;51.600;5.718;2022-11-13T02:45:01;16.88;;;4.80;;
48052;SDS011;33824;51.600;5.718;2022-11-13T02:47:28;11.98;;;5.20;;
48052;SDS011;33824;51.600;5.718;2022-11-13T02:49:53;10.90;;;5.05;;
48052;SDS011;33824;51.600;5.718;2022-11-13T02:52:19;9.15;;;4.90;;
48052;SDS011;33824;51.600;5.718;2022-11-13T02:54:44;12.02;;;4.82;;
48052;SDS011;33824;51.600;5.718;2022-11-13T02:57:10;9.75;;;5.15;;
48052;SDS011;33824;51.600;5.718;2022-11-13T02:59:35;12.48;;;4.68;;
48052;SDS011;33824;51.600;5.718;2022-11-13T03:02:01;12.30;;;5.05;;
48052;SDS011;33824;51.600;5.718;2022-11-13T03:04:27;11.13;;;5.10;;
48052;SDS011;33824;51.600;5.718;2022-11-13T03:06:52;11.30;;;4.88;;
48052;SDS011;33824;51.600;5.718;2022-11-13T03:09:18;10.70;;;4.65;;
48052;SDS011;33824;51.600;5.718;2022-11-13T03:11:43;10.75;;;5.18;;
48052;SDS011;33824;51.600;5.718;2022-11-13T03:14:08;11.90;;;5.30;;
48052;SDS011;33824;51.600;5.718;2022-11-13T03:16:34;12.98;;;5.20;;
48052;SDS011;33824;51.600;5.718;2022-11-13T03:19:00;9.38;;;4.97;;
48052;SDS011;33824;51.600;5.718;2022-11-13T03:21:26;11.93;;;5.18;;
48052;SDS011;33824;51.600;5.718;2022-11-13T03:23:52;12.88;;;5.32;;
48052;SDS011;33824;51.600;5.718;2022-11-13T03:26:18;9.27;;;4.82;;
48052;SDS011;33824;51.600;5.718;2022-11-13T03:28:44;16.00;;;5.22;;
48052;SDS011;33824;51.600;5.718;2022-11-13T03:31:10;10.40;;;4.35;;
48052;SDS011;33824;51.600;5.718;2022-11-13T03:33:35;14.60;;;5.70;;
48052;SDS011;33824;51.600;5.718;2022-11-13T03:36:01;11.15;;;5.55;;
48052;SDS011;33824;51.600;5.718;2022-11-13T03:38:27;10.77;;;5.38;;
48052;SDS011;33824;51.600;5.718;2022-11-13T03:40:52;9.15;;;4.63;;
48052;SDS011;33824;51.600;5.718;2022-11-13T03:43:18;13.25;;;5.00;;
48052;SDS011;33824;51.600;5.718;2022-11-13T03:45:44;15.07;;;5.65;;
48052;SDS011;33824;51.600;5.718;2022-11-13T03:48:14;10.30;;;5.68;;
48052;SDS011;33824;51.600;5.718;2022-11-13T03:50:44;10.57;;;5.43;;
48052;SDS011;33824;51.600;5.718;2022-11-13T03:53:12;13.63;;;5.32;;
48052;SDS011;33824;51.600;5.718;2022-11-13T03:55:37;12.15;;;5.57;;
48052;SDS011;33824;51.600;5.718;2022-11-13T03:58:03;11.40;;;6.10;;
48052;SDS011;33824;51.600;5.718;2022-11-13T04:00:29;13.85;;;5.80;;
48052;SDS011;33824;51.600;5.718;2022-11-13T04:02:54;13.05;;;4.88;;
48052;SDS011;33824;51.600;5.718;2022-11-13T04:05:20;15.10;;;5.85;;
48052;SDS011;33824;51.600;5.718;2022-11-13T04:07:46;11.52;;;5.72;;
48052;SDS011;33824;51.600;5.718;2022-11-13T04:10:13;10.88;;;5.00;;
48052;SDS011;33824;51.600;5.718;2022-11-13T04:12:38;12.85;;;6.00;;
48052;SDS011;33824;51.600;5.718;2022-11-13T04:15:04;11.52;;;6.05;;
48052;SDS011;33824;51.600;5.718;2022-11-13T04:17:31;9.57;;;5.28;;
48052;SDS011;33824;51.600;5.718;2022-11-13T04:19:56;11.10;;;5.32;;
48052;SDS011;33824;51.600;5.718;2022-11-13T04:22:22;13.43;;;5.25;;
48052;SDS011;33824;51.600;5.718;2022-11-13T04:24:47;13.10;;;6.13;;
48052;SDS011;33824;51.600;5.718;2022-11-13T04:27:13;13.70;;;5.78;;
48052;SDS011;33824;51.600;5.718;2022-11-13T04:29:38;16.63;;;5.93;;
48052;SDS011;33824;51.600;5.718;2022-11-13T04:32:04;12.32;;;5.45;;
48052;SDS011;33824;51.600;5.718;2022-11-13T04:34:30;11.85;;;6.28;;
48052;SDS011;33824;51.600;5.718;2022-11-13T04:36:55;10.50;;;5.35;;
48052;SDS011;33824;51.600;5.718;2022-11-13T04:39:21;11.43;;;6.45;;
48052;SDS011;33824;51.600;5.718;2022-11-13T04:41:46;12.48;;;6.38;;
48052;SDS011;33824;51.600;5.718;2022-11-13T04:44:32;10.98;;;5.45;;
48052;SDS011;33824;51.600;5.718;2022-11-13T04:46:57;16.85;;;6.40;;
48052;SDS011;33824;51.600;5.718;2022-11-13T04:49:23;11.20;;;5.97;;
48052;SDS011;33824;51.600;5.718;2022-11-13T04:51:48;18.27;;;5.97;;
48052;SDS011;33824;51.600;5.718;2022-11-13T04:54:14;13.57;;;6.32;;
48052;SDS011;33824;51.600;5.718;2022-11-13T04:56:39;11.13;;;5.72;;
48052;SDS011;33824;51.600;5.718;2022-11-13T04:59:05;12.32;;;5.60;;
48052;SDS011;33824;51.600;5.718;2022-11-13T05:01:30;11.55;;;5.70;;
48052;SDS011;33824;51.600;5.718;2022-11-13T05:03:56;12.30;;;5.63;;
48052;SDS011;33824;51.600;5.718;2022-11-13T05:06:21;12.07;;;5.80;;
48052;SDS011;33824;51.600;5.718;2022-11-13T05:08:47;10.73;;;5.57;;
48052;SDS011;33824;51.600;5.718;2022-11-13T05:11:12;15.77;;;6.15;;
48052;SDS011;33824;51.600;5.718;2022-11-13T05:13:38;11.40;;;5.38;;
48052;SDS011;33824;51.600;5.718;2022-11-13T05:16:05;16.42;;;5.82;;
48052;SDS011;33824;51.600;5.718;2022-11-13T05:18:33;10.48;;;5.82;;
48052;SDS011;33824;51.600;5.718;2022-11-13T05:21:00;9.75;;;5.43;;
48052;SDS011;33824;51.600;5.718;2022-11-13T05:23:26;11.77;;;5.55;;
48052;SDS011;33824;51.600;5.718;2022-11-13T05:25:52;12.05;;;5.95;;
48052;SDS011;33824;51.600;5.718;2022-11-13T05:28:18;9.18;;;4.90;;
48052;SDS011;33824;51.600;5.718;2022-11-13T05:30:43;15.27;;;5.80;;
48052;SDS011;33824;51.600;5.718;2022-11-13T05:33:09;15.93;;;6.05;;
48052;SDS011;33824;51.600;5.718;2022-11-13T05:35:34;12.10;;;5.63;;
48052;SDS011;33824;51.600;5.718;2022-11-13T05:38:00;12.90;;;5.18;;
48052;SDS011;33824;51.600;5.718;2022-11-13T05:40:27;11.90;;;5.13;;
48052;SDS011;33824;51.600;5.718;2022-11-13T05:42:53;13.10;;;5.25;;
48052;SDS011;33824;51.600;5.718;2022-11-13T05:45:19;10.93;;;5.38;;
48052;SDS011;33824;51.600;5.718;2022-11-13T05:47:45;11.07;;;5.90;;
48052;SDS011;33824;51.600;5.718;2022-11-13T05:50:10;11.50;;;5.78;;
48052;SDS011;33824;51.600;5.718;2022-11-13T05:52:36;13.77;;;5.25;;
48052;SDS011;33824;51.600;5.718;2022-11-13T05:55:01;15.73;;;5.40;;
48052;SDS011;33824;51.600;5.718;2022-11-13T05:57:27;7.97;;;4.82;;
48052;SDS011;33824;51.600;5.718;2022-11-13T05:59:53;9.27;;;5.15;;
48052;SDS011;33824;51.600;5.718;2022-11-13T06:02:18;11.52;;;5.28;;
48052;SDS011;33824;51.600;5.718;2022-11-13T06:04:43;12.45;;;4.28;;
48052;SDS011;33824;51.600;5.718;2022-11-13T06:07:09;9.18;;;4.93;;
48052;SDS011;33824;51.600;5.718;2022-11-13T06:09:34;8.48;;;4.70;;
48052;SDS011;33824;51.600;5.718;2022-11-13T06:12:00;8.45;;;4.75;;
48052;SDS011;33824;51.600;5.718;2022-11-13T06:14:25;14.10;;;4.88;;
48052;SDS011;33824;51.600;5.718;2022-11-13T06:16:51;7.10;;;4.22;;
48052;SDS011;33824;51.600;5.718;2022-11-13T06:19:16;8.43;;;4.28;;
48052;SDS011;33824;51.600;5.718;2022-11-13T06:21:42;8.38;;;3.85;;
48052;SDS011;33824;51.600;5.718;2022-11-13T06:24:09;7.20;;;4.10;;
48052;SDS011;33824;51.600;5.718;2022-11-13T06:26:36;9.95;;;4.30;;
48052;SDS011;33824;51.600;5.718;2022-11-13T06:29:02;7.38;;;4.07;;
48052;SDS011;33824;51.600;5.718;2022-11-13T06:31:31;11.70;;;4.63;;
48052;SDS011;33824;51.600;5.718;2022-11-13T06:33:57;7.50;;;3.58;;
48052;SDS011;33824;51.600;5.718;2022-11-13T06:36:25;6.55;;;3.22;;
48052;SDS011;33824;51.600;5.718;2022-11-13T06:38:52;6.65;;;2.95;;
48052;SDS011;33824;51.600;5.718;2022-11-13T06:41:19;9.48;;;3.00;;
48052;SDS011;33824;51.600;5.718;2022-11-13T06:43:46;9.48;;;3.83;;
48052;SDS011;33824;51.600;5.718;2022-11-13T06:46:15;6.38;;;2.70;;
48052;SDS011;33824;51.600;5.718;2022-11-13T06:48:41;5.35;;;2.90;;
48052;SDS011;33824;51.600;5.718;2022-11-13T06:51:08;5.25;;;2.78;;
48052;SDS011;33824;51.600;5.718;2022-11-13T06:53:37;6.30;;;2.10;;
48052;SDS011;33824;51.600;5.718;2022-11-13T06:56:03;3.70;;;2.20;;
48052;SDS011;33824;51.600;5.718;2022-11-13T06:58:30;3.65;;;2.42;;
48052;SDS011;33824;51.600;5.718;2022-11-13T07:00:56;4.10;;;2.13;;
48052;SDS011;33824;51.600;5.718;2022-11-13T07:03:23;4.10;;;2.47;;
48052;SDS011;33824;51.600;5.718;2022-11-13T07:05:50;4.30;;;2.10;;
48052;SDS011;33824;51.600;5.718;2022-11-13T07:08:19;3.45;;;2.10;;
48052;SDS011;33824;51.600;5.718;2022-11-13T07:10:51;3.53;;;2.05;;
48052;SDS011;33824;51.600;5.718;2022-11-13T07:13:19;3.95;;;2.28;;
48052;SDS011;33824;51.600;5.718;2022-11-13T07:15:45;3.70;;;2.35;;
48052;SDS011;33824;51.600;5.718;2022-11-13T07:18:11;2.97;;;2.20;;
48052;SDS011;33824;51.600;5.718;2022-11-13T07:20:37;6.50;;;2.20;;
48052;SDS011;33824;51.600;5.718;2022-11-13T07:23:03;3.22;;;1.92;;
48052;SDS011;33824;51.600;5.718;2022-11-13T07:25:29;2.95;;;1.98;;
48052;SDS011;33824;51.600;5.718;2022-11-13T07:27:55;10.77;;;2.20;;
48052;SDS011;33824;51.600;5.718;2022-11-13T07:30:21;9.27;;;2.15;;
48052;SDS011;33824;51.600;5.718;2022-11-13T07:32:47;4.18;;;2.05;;
48052;SDS011;33824;51.600;5.718;2022-11-13T07:35:12;3.58;;;1.98;;
48052;SDS011;33824;51.600;5.718;2022-11-13T07:37:38;3.70;;;2.17;;
48052;SDS011;33824;51.600;5.718;2022-11-13T07:40:04;3.15;;;2.22;;
48052;SDS011;33824;51.600;5.718;2022-11-13T07:42:30;3.70;;;2.20;;
48052;SDS011;33824;51.600;5.718;2022-11-13T07:44:56;3.42;;;2.03;;
48052;SDS011;33824;51.600;5.718;2022-11-13T07:47:22;3.83;;;2.15;;
48052;SDS011;33824;51.600;5.718;2022-11-13T07:49:48;3.80;;;2.22;;
48052;SDS011;33824;51.600;5.718;2022-11-13T07:52:13;7.05;;;2.25;;
48052;SDS011;33824;51.600;5.718;2022-11-13T07:54:39;4.85;;;2.60;;
48052;SDS011;33824;51.600;5.718;2022-11-13T07:57:04;5.90;;;2.65;;
48052;SDS011;33824;51.600;5.718;2022-11-13T07:59:30;4.78;;;2.08;;
48052;SDS011;33824;51.600;5.718;2022-11-13T08:01:56;4.28;;;2.33;;
48052;SDS011;33824;51.600;5.718;2022-11-13T08:04:21;3.17;;;2.30;;
48052;SDS011;33824;51.600;5.718;2022-11-13T08:06:47;4.10;;;2.30;;
48052;SDS011;33824;51.600;5.718;2022-11-13T08:09:12;4.85;;;2.47;;
48052;SDS011;33824;51.600;5.718;2022-11-13T08:11:38;9.13;;;2.88;;
48052;SDS011;33824;51.600;5.718;2022-11-13T08:14:03;4.75;;;2.78;;
48052;SDS011;33824;51.600;5.718;2022-11-13T08:16:29;4.63;;;2.55;;
48052;SDS011;33824;51.600;5.718;2022-11-13T08:18:55;6.82;;;2.47;;
48052;SDS011;33824;51.600;5.718;2022-11-13T08:21:21;4.03;;;2.63;;
48052;SDS011;33824;51.600;5.718;2022-11-13T08:23:47;3.53;;;2.15;;
48052;SDS011;33824;51.600;5.718;2022-11-13T08:26:15;4.93;;;2.80;;
48052;SDS011;33824;51.600;5.718;2022-11-13T08:28:41;4.22;;;2.35;;
48052;SDS011;33824;51.600;5.718;2022-11-13T08:31:09;4.22;;;2.20;;
48052;SDS011;33824;51.600;5.718;2022-11-13T08:33:36;4.22;;;2.50;;
48052;SDS011;33824;51.600;5.718;2022-11-13T08:36:02;6.07;;;2.35;;
48052;SDS011;33824;51.600;5.718;2022-11-13T08:38:27;4.65;;;2.30;;
48052;SDS011;33824;51.600;5.718;2022-11-13T08:40:59;3.03;;;2.30;;
48052;SDS011;33824;51.600;5.718;2022-11-13T08:43:26;3.85;;;2.30;;
48052;SDS011;33824;51.600;5.718;2022-11-13T08:45:52;4.50;;;2.65;;
48052;SDS011;33824;51.600;5.718;2022-11-13T08:48:18;3.40;;;2.20;;
48052;SDS011;33824;51.600;5.718;2022-11-13T08:50:44;4.75;;;2.25;;
48052;SDS011;33824;51.600;5.718;2022-11-13T08:53:09;3.67;;;2.00;;
48052;SDS011;33824;51.600;5.718;2022-11-13T08:55:35;4.78;;;2.28;;
48052;SDS011;33824;51.600;5.718;2022-11-13T08:58:01;5.43;;;2.80;;
48052;SDS011;33824;51.600;5.718;2022-11-13T09:00:29;3.63;;;2.22;;
48052;SDS011;33824;51.600;5.718;2022-11-13T09:02:56;4.28;;;2.40;;
48052;SDS011;33824;51.600;5.718;2022-11-13T09:05:23;3.72;;;2.10;;
48052;SDS011;33824;51.600;5.718;2022-11-13T09:07:49;10.75;;;2.30;;
48052;SDS011;33824;51.600;5.718;2022-11-13T09:10:15;5.10;;;1.80;;
48052;SDS011;33824;51.600;5.718;2022-11-13T09:12:42;3.05;;;2.00;;
48052;SDS011;33824;51.600;5.718;2022-11-13T09:15:08;3.95;;;2.20;;
48052;SDS011;33824;51.600;5.718;2022-11-13T09:17:33;3.22;;;2.17;;
48052;SDS011;33824;51.600;5.718;2022-11-13T09:19:59;4.38;;;2.00;;
48052;SDS011;33824;51.600;5.718;2022-11-13T09:22:24;5.55;;;1.98;;
48052;SDS011;33824;51.600;5.718;2022-11-13T09:24:50;4.25;;;2.33;;
48052;SDS011;33824;51.600;5.718;2022-11-13T09:27:16;2.65;;;1.80;;
48052;SDS011;33824;51.600;5.718;2022-11-13T09:29:42;2.58;;;1.88;;
48052;SDS011;33824;51.600;5.718;2022-11-13T09:32:07;5.18;;;1.85;;
48052;SDS011;33824;51.600;5.718;2022-11-13T09:34:33;5.90;;;2.15;;
48052;SDS011;33824;51.600;5.718;2022-11-13T09:36:59;4.18;;;2.10;;
48052;SDS011;33824;51.600;5.718;2022-11-13T09:39:24;3.47;;;2.35;;
48052;SDS011;33824;51.600;5.718;2022-11-13T09:41:59;3.72;;;2.22;;
48052;SDS011;33824;51.600;5.718;2022-11-13T09:44:32;5.47;;;2.08;;
48052;SDS011;33824;51.600;5.718;2022-11-13T09:47:45;2.95;;;1.95;;
48052;SDS011;33824;51.600;5.718;2022-11-13T09:49:57;3.72;;;2.03;;
48052;SDS011;33824;51.600;5.718;2022-11-13T09:52:39;3.95;;;2.00;;
48052;SDS011;33824;51.600;5.718;2022-11-13T09:55:10;4.35;;;1.95;;
48052;SDS011;33824;51.600;5.718;2022-11-13T09:57:50;4.72;;;2.38;;
48052;SDS011;33824;51.600;5.718;2022-11-13T10:00:21;4.20;;;2.03;;
48052;SDS011;33824;51.600;5.718;2022-11-13T10:08:44;6.18;;;1.83;;
48052;SDS011;33824;51.600;5.718;2022-11-13T10:14:34;3.63;;;1.92;;
48052;SDS011;33824;51.600;5.718;2022-11-13T10:19:59;6.10;;;2.42;;
48052;SDS011;33824;51.600;5.718;2022-11-13T10:22:28;4.72;;;1.77;;
48052;SDS011;33824;51.600;5.718;2022-11-13T10:25:11;3.10;;;2.05;;
48052;SDS011;33824;51.600;5.718;2022-11-13T10:27:40;5.10;;;2.00;;
48052;SDS011;33824;51.600;5.718;2022-11-13T10:30:16;4.90;;;2.67;;
48052;SDS011;33824;51.600;5.718;2022-11-13T10:32:43;2.90;;;2.00;;
48052;SDS011;33824;51.600;5.718;2022-11-13T10:35:21;4.18;;;2.33;;
48052;SDS011;33824;51.600;5.718;2022-11-13T10:38:02;2.78;;;2.03;;
48052;SDS011;33824;51.600;5.718;2022-11-13T10:40:32;3.90;;;2.40;;
48052;SDS011;33824;51.600;5.718;2022-11-13T10:43:15;6.18;;;2.42;;
48052;SDS011;33824;51.600;5.718;2022-11-13T10:45:53;3.97;;;2.30;;
48052;SDS011;33824;51.600;5.718;2022-11-13T10:48:21;3.97;;;2.50;;
48052;SDS011;33824;51.600;5.718;2022-11-13T10:53:45;7.38;;;2.25;;
48052;SDS011;33824;51.600;5.718;2022-11-13T10:56:19;4.55;;;2.08;;
48052;SDS011;33824;51.600;5.718;2022-11-13T11:01:40;4.95;;;2.20;;
48052;SDS011;33824;51.600;5.718;2022-11-13T11:04:18;2.95;;;2.03;;
48052;SDS011;33824;51.600;5.718;2022-11-13T11:06:45;3.15;;;2.15;;
48052;SDS011;33824;51.600;5.718;2022-11-13T11:11:57;4.68;;;1.92;;
48052;SDS011;33824;51.600;5.718;2022-11-13T11:17:45;3.08;;;2.00;;
48052;SDS011;33824;51.600;5.718;2022-11-13T11:23:16;3.67;;;2.03;;
48052;SDS011;33824;51.600;5.718;2022-11-13T11:25:58;3.47;;;1.90;;
48052;SDS011;33824;51.600;5.718;2022-11-13T11:28:28;4.35;;;1.85;;
48052;SDS011;33824;51.600;5.718;2022-11-13T11:31:05;3.05;;;2.08;;
48052;SDS011;33824;51.600;5.718;2022-11-13T11:33:51;3.67;;;2.10;;
48052;SDS011;33824;51.600;5.718;2022-11-13T11:36:28;2.83;;;2.17;;
48052;SDS011;33824;51.600;5.718;2022-11-13T11:39:01;3.28;;;2.13;;
48052;SDS011;33824;51.600;5.718;2022-11-13T11:41:42;4.10;;;2.20;;
48052;SDS011;33824;51.600;5.718;2022-11-13T11:44:17;3.15;;;2.10;;
48052;SDS011;33824;51.600;5.718;2022-11-13T11:46:43;4.82;;;2.20;;
48052;SDS011;33824;51.600;5.718;2022-11-13T11:49:09;3.78;;;2.22;;
48052;SDS011;33824;51.600;5.718;2022-11-13T11:54:41;4.30;;;2.47;;
48052;SDS011;33824;51.600;5.718;2022-11-13T11:57:18;3.75;;;2.47;;
48052;SDS011;33824;51.600;5.718;2022-11-13T12:00:01;3.58;;;2.50;;
48052;SDS011;33824;51.600;5.718;2022-11-13T12:11:37;4.80;;;2.33;;
48052;SDS011;33824;51.600;5.718;2022-11-13T12:16:48;5.95;;;2.72;;
48052;SDS011;33824;51.600;5.718;2022-11-13T12:19:36;9.68;;;2.53;;
48052;SDS011;33824;51.600;5.718;2022-11-13T12:22:43;4.30;;;2.65;;
48052;SDS011;33824;51.600;5.718;2022-11-13T12:27:48;4.15;;;2.35;;
48052;SDS011;33824;51.600;5.718;2022-11-13T12:30:21;5.97;;;2.63;;
48052;SDS011;33824;51.600;5.718;2022-11-13T12:33:07;4.97;;;2.05;;
48052;SDS011;33824;51.600;5.718;2022-11-13T12:35:43;4.93;;;2.17;;
48052;SDS011;33824;51.600;5.718;2022-11-13T12:43:46;3.05;;;1.70;;
48052;SDS011;33824;51.600;5.718;2022-11-13T12:46:15;4.18;;;2.28;;
48052;SDS011;33824;51.600;5.718;2022-11-13T12:48:43;12.63;;;2.72;;
48052;SDS011;33824;51.600;5.718;2022-11-13T12:51:11;5.28;;;2.38;;
48052;SDS011;33824;51.600;5.718;2022-11-13T12:53:42;4.25;;;2.30;;
48052;SDS011;33824;51.600;5.718;2022-11-13T12:56:13;4.25;;;2.40;;
48052;SDS011;33824;51.600;5.718;2022-11-13T12:59:00;5.63;;;2.30;;
48052;SDS011;33824;51.600;5.718;2022-11-13T13:01:33;3.45;;;1.90;;
48052;SDS011;33824;51.600;5.718;2022-11-13T13:17:46;3.22;;;2.20;;
48052;SDS011;33824;51.600;5.718;2022-11-13T13:22:37;2.85;;;1.88;;
48052;SDS011;33824;51.600;5.718;2022-11-13T13:27:59;5.53;;;2.58;;
48052;SDS011;33824;51.600;5.718;2022-11-13T13:30:26;3.85;;;1.77;;
48052;SDS011;33824;51.600;5.718;2022-11-13T13:33:02;3.22;;;1.70;;
48052;SDS011;33824;51.600;5.718;2022-11-13T13:35:33;5.13;;;2.17;;
48052;SDS011;33824;51.600;5.718;2022-11-13T13:41:00;3.75;;;2.33;;
48052;SDS011;33824;51.600;5.718;2022-11-13T13:46:37;5.93;;;2.40;;
48052;SDS011;33824;51.600;5.718;2022-11-13T13:49:13;9.27;;;2.33;;
48052;SDS011;33824;51.600;5.718;2022-11-13T13:51:42;9.25;;;2.60;;
48052;SDS011;33824;51.600;5.718;2022-11-13T13:54:15;5.30;;;2.65;;
48052;SDS011;33824;51.600;5.718;2022-11-13T13:56:45;2.97;;;1.90;;
48052;SDS011;33824;51.600;5.718;2022-11-13T13:59:15;6.38;;;2.40;;
48052;SDS011;33824;51.600;5.718;2022-11-13T14:01:53;4.97;;;2.15;;
48052;SDS011;33824;51.600;5.718;2022-11-13T14:04:21;5.72;;;2.35;;
48052;SDS011;33824;51.600;5.718;2022-11-13T14:06:49;3.55;;;2.17;;
48052;SDS011;33824;51.600;5.718;2022-11-13T14:09:16;4.25;;;2.20;;
48052;SDS011;33824;51.600;5.718;2022-11-13T14:11:46;5.57;;;2.63;;
48052;SDS011;33824;51.600;5.718;2022-11-13T14:14:20;7.00;;;2.63;;
48052;SDS011;33824;51.600;5.718;2022-11-13T14:16:57;8.15;;;3.58;;
48052;SDS011;33824;51.600;5.718;2022-11-13T14:19:24;9.57;;;3.28;;
48052;SDS011;33824;51.600;5.718;2022-11-13T14:22:00;7.72;;;3.30;;
48052;SDS011;33824;51.600;5.718;2022-11-13T14:24:30;7.32;;;3.15;;
48052;SDS011;33824;51.600;5.718;2022-11-13T14:26:59;7.80;;;2.95;;
48052;SDS011;33824;51.600;5.718;2022-11-13T14:32:17;8.13;;;3.45;;
48052;SDS011;33824;51.600;5.718;2022-11-13T14:34:47;8.35;;;3.45;;
48052;SDS011;33824;51.600;5.718;2022-11-13T14:39:43;5.95;;;3.00;;
48052;SDS011;33824;51.600;5.718;2022-11-13T14:42:21;8.77;;;3.50;;
48052;SDS011;33824;51.600;5.718;2022-11-13T14:44:52;7.93;;;3.30;;
48052;SDS011;33824;51.600;5.718;2022-11-13T14:47:23;8.65;;;3.70;;
48052;SDS011;33824;51.600;5.718;2022-11-13T14:49:53;9.00;;;3.78;;
48052;SDS011;33824;51.600;5.718;2022-11-13T14:52:26;10.73;;;3.90;;
48052;SDS011;33824;51.600;5.718;2022-11-13T14:55:05;12.13;;;4.18;;
48052;SDS011;33824;51.600;5.718;2022-11-13T14:57:32;7.97;;;3.88;;
48052;SDS011;33824;51.600;5.718;2022-11-13T15:00:08;11.32;;;4.25;;
48052;SDS011;33824;51.600;5.718;2022-11-13T15:02:35;7.97;;;3.70;;
48052;SDS011;33824;51.600;5.718;2022-11-13T15:05:00;13.80;;;3.40;;
48052;SDS011;33824;51.600;5.718;2022-11-13T15:07:30;11.32;;;4.20;;
48052;SDS011;33824;51.600;5.718;2022-11-13T15:09:57;10.25;;;4.00;;
48052;SDS011;33824;51.600;5.718;2022-11-13T15:12:24;10.63;;;3.85;;
48052;SDS011;33824;51.600;5.718;2022-11-13T15:14:49;15.07;;;3.83;;
48052;SDS011;33824;51.600;5.718;2022-11-13T15:17:16;7.50;;;3.33;;
48052;SDS011;33824;51.600;5.718;2022-11-13T15:19:44;7.75;;;3.25;;
48052;SDS011;33824;51.600;5.718;2022-11-13T15:22:13;7.75;;;3.53;;
48052;SDS011;33824;51.600;5.718;2022-11-13T15:24:39;8.00;;;3.55;;
48052;SDS011;33824;51.600;5.718;2022-11-13T15:27:05;11.45;;;4.22;;
48052;SDS011;33824;51.600;5.718;2022-11-13T15:29:37;6.78;;;3.72;;
48052;SDS011;33824;51.600;5.718;2022-11-13T15:32:02;9.10;;;3.63;;
48052;SDS011;33824;51.600;5.718;2022-11-13T15:34:28;10.75;;;3.85;;
48052;SDS011;33824;51.600;5.718;2022-11-13T15:36:53;7.70;;;3.67;;
48052;SDS011;33824;51.600;5.718;2022-11-13T15:39:19;9.10;;;3.97;;
48052;SDS011;33824;51.600;5.718;2022-11-13T15:41:45;13.35;;;4.25;;
48052;SDS011;33824;51.600;5.718;2022-11-13T15:44:12;13.48;;;4.07;;
48052;SDS011;33824;51.600;5.718;2022-11-13T15:46:38;11.18;;;3.97;;
48052;SDS011;33824;51.600;5.718;2022-11-13T15:49:04;7.07;;;3.65;;
48052;SDS011;33824;51.600;5.718;2022-11-13T15:51:40;6.10;;;3.30;;
48052;SDS011;33824;51.600;5.718;2022-11-13T15:54:15;10.00;;;4.13;;
48052;SDS011;33824;51.600;5.718;2022-11-13T15:56:47;11.80;;;4.43;;
48052;SDS011;33824;51.600;5.718;2022-11-13T15:59:13;10.85;;;3.78;;
48052;SDS011;33824;51.600;5.718;2022-11-13T16:01:39;12.98;;;4.30;;
48052;SDS011;33824;51.600;5.718;2022-11-13T16:04:05;9.60;;;4.03;;
48052;SDS011;33824;51.600;5.718;2022-11-13T16:06:32;10.38;;;4.75;;
48052;SDS011;33824;51.600;5.718;2022-11-13T16:08:59;12.90;;;5.32;;
48052;SDS011;33824;51.600;5.718;2022-11-13T16:11:25;9.98;;;4.53;;
48052;SDS011;33824;51.600;5.718;2022-11-13T16:13:51;9.88;;;4.30;;